sensor_id;sensor_type;location;lat;lon;timestamp;P1;durP1;ratioP1;P2;durP2;ratioP2
37085;SDS011;23001;45.952;12.676;2022-11-12T00:00:40;20.17;;;17.52;;
37085;SDS011;23001;45.952;12.676;2022-11-12T00:03:05;20.67;;;18.48;;
37085;SDS011;23001;45.952;12.676;2022-11-12T00:05:32;21.73;;;19.30;;
37085;SDS011;23001;45.952;12.676;2022-11-12T00:07:57;20.92;;;18.63;;
37085;SDS011;23001;45.952;12.676;2022-11-12T00:10:23;22.73;;;19.95;;
37085;SDS011;23001;45.952;12.676;2022-11-12T00:12:49;25.63;;;21.27;;
37085;SDS011;23001;45.952;12.676;2022-11-12T00:15:15;25.33;;;22.20;;
37085;SDS011;23001;45.952;12.676;2022-11-12T00:20:25;25.00;;;20.90;;
37085;SDS011;23001;45.952;12.676;2022-11-12T00:22:51;23.20;;;19.58;;
37085;SDS011;23001;45.952;12.676;2022-11-12T00:25:17;23.10;;;19.13;;
37085;SDS011;23001;45.952;12.676;2022-11-12T00:27:42;22.08;;;19.77;;
37085;SDS011;23001;45.952;12.676;2022-11-12T00:30:08;20.58;;;18.35;;
37085;SDS011;23001;45.952;12.676;2022-11-12T00:32:35;23.85;;;19.67;;
37085;SDS011;23001;45.952;12.676;2022-11-12T00:35:02;24.00;;;18.63;;
37085;SDS011;23001;45.952;12.676;2022-11-12T00:37:28;21.83;;;18.52;;
37085;SDS011;23001;45.952;12.676;2022-11-12T00:39:54;21.05;;;18.80;;
37085;SDS011;23001;45.952;12.676;2022-11-12T00:42:20;22.10;;;18.10;;
37085;SDS011;23001;45.952;12.676;2022-11-12T00:44:46;21.67;;;17.58;;
37085;SDS011;23001;45.952;12.676;2022-11-12T00:47:13;22.13;;;17.33;;
37085;SDS011;23001;45.952;12.676;2022-11-12T00:49:39;18.83;;;16.42;;
37085;SDS011;23001;45.952;12.676;2022-11-12T00:52:05;17.48;;;15.20;;
37085;SDS011;23001;45.952;12.676;2022-11-12T00:54:31;18.15;;;16.15;;
37085;SDS011;23001;45.952;12.676;2022-11-12T00:56:56;20.92;;;16.98;;
37085;SDS011;23001;45.952;12.676;2022-11-12T00:59:22;21.70;;;16.33;;
37085;SDS011;23001;45.952;12.676;2022-11-12T01:01:48;19.90;;;15.68;;
37085;SDS011;23001;45.952;12.676;2022-11-12T01:04:14;16.23;;;14.23;;
37085;SDS011;23001;45.952;12.676;2022-11-12T01:06:39;17.98;;;15.68;;
37085;SDS011;23001;45.952;12.676;2022-11-12T01:09:06;17.40;;;14.82;;
37085;SDS011;23001;45.952;12.676;2022-11-12T01:11:33;16.05;;;13.40;;
37085;SDS011;23001;45.952;12.676;2022-11-12T01:14:06;15.05;;;13.45;;
37085;SDS011;23001;45.952;12.676;2022-11-12T01:16:34;14.27;;;12.57;;
37085;SDS011;23001;45.952;12.676;2022-11-12T01:19:02;15.52;;;13.75;;
37085;SDS011;23001;45.952;12.676;2022-11-12T01:21:30;16.05;;;13.52;;
37085;SDS011;23001;45.952;12.676;2022-11-12T01:23:57;16.17;;;13.88;;
37085;SDS011;23001;45.952;12.676;2022-11-12T01:26:25;15.73;;;13.13;;
37085;SDS011;23001;45.952;12.676;2022-11-12T01:28:54;14.65;;;13.10;;
37085;SDS011;23001;45.952;12.676;2022-11-12T01:31:24;15.77;;;13.32;;
37085;SDS011;23001;45.952;12.676;2022-11-12T01:33:52;15.50;;;13.95;;
37085;SDS011;23001;45.952;12.676;2022-11-12T01:36:20;16.95;;;13.65;;
37085;SDS011;23001;45.952;12.676;2022-11-12T01:38:47;15.70;;;13.93;;
37085;SDS011;23001;45.952;12.676;2022-11-12T01:41:23;15.13;;;13.13;;
37085;SDS011;23001;45.952;12.676;2022-11-12T01:49:17;13.32;;;11.73;;
37085;SDS011;23001;45.952;12.676;2022-11-12T01:51:45;15.38;;;12.43;;
37085;SDS011;23001;45.952;12.676;2022-11-12T01:54:14;14.23;;;11.82;;
37085;SDS011;23001;45.952;12.676;2022-11-12T01:56:42;13.90;;;11.98;;
37085;SDS011;23001;45.952;12.676;2022-11-12T01:59:25;15.00;;;12.40;;
37085;SDS011;23001;45.952;12.676;2022-11-12T02:01:54;15.77;;;12.77;;
37085;SDS011;23001;45.952;12.676;2022-11-12T02:04:20;15.63;;;12.52;;
37085;SDS011;23001;45.952;12.676;2022-11-12T02:06:47;15.32;;;13.20;;
37085;SDS011;23001;45.952;12.676;2022-11-12T02:09:15;13.35;;;11.98;;
37085;SDS011;23001;45.952;12.676;2022-11-12T02:11:41;16.42;;;13.25;;
37085;SDS011;23001;45.952;12.676;2022-11-12T02:14:06;14.32;;;12.80;;
37085;SDS011;23001;45.952;12.676;2022-11-12T02:16:37;14.88;;;11.85;;
37085;SDS011;23001;45.952;12.676;2022-11-12T02:19:06;13.35;;;11.35;;
37085;SDS011;23001;45.952;12.676;2022-11-12T02:21:34;12.73;;;11.43;;
37085;SDS011;23001;45.952;12.676;2022-11-12T02:26:34;12.98;;;10.98;;
37085;SDS011;23001;45.952;12.676;2022-11-12T02:29:02;13.88;;;11.98;;
37085;SDS011;23001;45.952;12.676;2022-11-12T02:31:29;15.98;;;13.18;;
37085;SDS011;23001;45.952;12.676;2022-11-12T02:33:54;14.63;;;12.40;;
37085;SDS011;23001;45.952;12.676;2022-11-12T02:36:20;14.48;;;12.45;;
37085;SDS011;23001;45.952;12.676;2022-11-12T02:38:46;15.05;;;13.07;;
37085;SDS011;23001;45.952;12.676;2022-11-12T02:41:12;15.13;;;11.90;;
37085;SDS011;23001;45.952;12.676;2022-11-12T02:43:39;13.88;;;11.73;;
37085;SDS011;23001;45.952;12.676;2022-11-12T02:46:05;14.85;;;11.55;;
37085;SDS011;23001;45.952;12.676;2022-11-12T02:48:31;13.80;;;11.55;;
37085;SDS011;23001;45.952;12.676;2022-11-12T02:50:57;13.20;;;11.90;;
37085;SDS011;23001;45.952;12.676;2022-11-12T02:53:23;16.25;;;11.63;;
37085;SDS011;23001;45.952;12.676;2022-11-12T02:55:49;17.80;;;12.27;;
37085;SDS011;23001;45.952;12.676;2022-11-12T02:58:15;15.35;;;13.43;;
37085;SDS011;23001;45.952;12.676;2022-11-12T03:00:40;15.18;;;11.88;;
37085;SDS011;23001;45.952;12.676;2022-11-12T03:03:06;13.95;;;11.45;;
37085;SDS011;23001;45.952;12.676;2022-11-12T03:05:32;13.57;;;10.60;;
37085;SDS011;23001;45.952;12.676;2022-11-12T03:08:00;13.35;;;11.07;;
37085;SDS011;23001;45.952;12.676;2022-11-12T03:10:28;11.80;;;9.75;;
37085;SDS011;23001;45.952;12.676;2022-11-12T03:12:58;16.13;;;10.93;;
37085;SDS011;23001;45.952;12.676;2022-11-12T03:15:25;13.15;;;9.82;;
37085;SDS011;23001;45.952;12.676;2022-11-12T03:17:52;10.43;;;9.32;;
37085;SDS011;23001;45.952;12.676;2022-11-12T03:20:18;10.30;;;9.30;;
37085;SDS011;23001;45.952;12.676;2022-11-12T03:22:53;9.05;;;8.07;;
37085;SDS011;23001;45.952;12.676;2022-11-12T03:25:25;9.35;;;8.32;;
37085;SDS011;23001;45.952;12.676;2022-11-12T03:27:56;10.80;;;8.27;;
37085;SDS011;23001;45.952;12.676;2022-11-12T03:30:26;9.30;;;8.23;;
37085;SDS011;23001;45.952;12.676;2022-11-12T03:32:53;9.07;;;7.32;;
37085;SDS011;23001;45.952;12.676;2022-11-12T03:35:18;7.82;;;7.07;;
37085;SDS011;23001;45.952;12.676;2022-11-12T03:37:44;8.23;;;6.88;;
37085;SDS011;23001;45.952;12.676;2022-11-12T03:40:10;9.38;;;6.68;;
37085;SDS011;23001;45.952;12.676;2022-11-12T03:42:36;8.55;;;6.75;;
37085;SDS011;23001;45.952;12.676;2022-11-12T03:45:01;9.15;;;7.15;;
37085;SDS011;23001;45.952;12.676;2022-11-12T03:47:27;7.70;;;6.18;;
37085;SDS011;23001;45.952;12.676;2022-11-12T03:49:53;8.70;;;6.35;;
37085;SDS011;23001;45.952;12.676;2022-11-12T03:52:19;7.38;;;6.22;;
37085;SDS011;23001;45.952;12.676;2022-11-12T03:54:44;8.02;;;6.15;;
37085;SDS011;23001;45.952;12.676;2022-11-12T03:57:10;5.70;;;5.10;;
37085;SDS011;23001;45.952;12.676;2022-11-12T03:59:36;7.15;;;5.55;;
37085;SDS011;23001;45.952;12.676;2022-11-12T04:02:02;6.05;;;5.50;;
37085;SDS011;23001;45.952;12.676;2022-11-12T04:04:27;6.60;;;5.75;;
37085;SDS011;23001;45.952;12.676;2022-11-12T04:07:13;7.28;;;6.45;;
37085;SDS011;23001;45.952;12.676;2022-11-12T04:09:57;8.05;;;6.53;;
37085;SDS011;23001;45.952;12.676;2022-11-12T04:12:23;7.60;;;5.93;;
37085;SDS011;23001;45.952;12.676;2022-11-12T04:15:07;7.43;;;5.80;;
37085;SDS011;23001;45.952;12.676;2022-11-12T04:17:33;7.22;;;5.45;;
37085;SDS011;23001;45.952;12.676;2022-11-12T04:20:37;7.22;;;5.50;;
37085;SDS011;23001;45.952;12.676;2022-11-12T04:23:21;6.50;;;5.65;;
37085;SDS011;23001;45.952;12.676;2022-11-12T04:25:46;5.53;;;4.70;;
37085;SDS011;23001;45.952;12.676;2022-11-12T04:28:31;5.57;;;4.90;;
37085;SDS011;23001;45.952;12.676;2022-11-12T04:30:56;6.22;;;5.25;;
37085;SDS011;23001;45.952;12.676;2022-11-12T04:33:22;7.07;;;5.70;;
37085;SDS011;23001;45.952;12.676;2022-11-12T04:35:48;7.38;;;5.10;;
37085;SDS011;23001;45.952;12.676;2022-11-12T04:38:13;5.45;;;4.90;;
37085;SDS011;23001;45.952;12.676;2022-11-12T04:40:39;10.82;;;5.32;;
37085;SDS011;23001;45.952;12.676;2022-11-12T04:43:23;5.35;;;4.55;;
37085;SDS011;23001;45.952;12.676;2022-11-12T04:46:08;5.13;;;4.50;;
37085;SDS011;23001;45.952;12.676;2022-11-12T04:48:34;4.78;;;4.35;;
37085;SDS011;23001;45.952;12.676;2022-11-12T04:51:00;5.22;;;4.72;;
37085;SDS011;23001;45.952;12.676;2022-11-12T04:53:27;6.10;;;4.97;;
37085;SDS011;23001;45.952;12.676;2022-11-12T04:55:55;4.80;;;4.30;;
37085;SDS011;23001;45.952;12.676;2022-11-12T04:58:23;4.70;;;4.20;;
37085;SDS011;23001;45.952;12.676;2022-11-12T05:00:49;7.80;;;4.85;;
37085;SDS011;23001;45.952;12.676;2022-11-12T05:03:15;5.57;;;4.90;;
37085;SDS011;23001;45.952;12.676;2022-11-12T05:05:41;6.30;;;4.85;;
37085;SDS011;23001;45.952;12.676;2022-11-12T05:08:07;6.63;;;5.30;;
37085;SDS011;23001;45.952;12.676;2022-11-12T05:10:33;5.95;;;4.57;;
37085;SDS011;23001;45.952;12.676;2022-11-12T05:12:59;5.15;;;4.15;;
37085;SDS011;23001;45.952;12.676;2022-11-12T05:15:24;4.63;;;4.13;;
37085;SDS011;23001;45.952;12.676;2022-11-12T05:17:50;6.47;;;4.55;;
37085;SDS011;23001;45.952;12.676;2022-11-12T05:20:16;5.55;;;3.63;;
37085;SDS011;23001;45.952;12.676;2022-11-12T05:22:42;6.53;;;4.07;;
37085;SDS011;23001;45.952;12.676;2022-11-12T05:25:08;4.32;;;3.90;;
37085;SDS011;23001;45.952;12.676;2022-11-12T05:27:34;4.28;;;3.58;;
37085;SDS011;23001;45.952;12.676;2022-11-12T05:30:00;5.03;;;3.88;;
37085;SDS011;23001;45.952;12.676;2022-11-12T05:32:26;5.38;;;3.53;;
37085;SDS011;23001;45.952;12.676;2022-11-12T05:34:52;6.28;;;3.97;;
37085;SDS011;23001;45.952;12.676;2022-11-12T05:37:18;4.03;;;3.22;;
37085;SDS011;23001;45.952;12.676;2022-11-12T05:39:44;3.55;;;3.00;;
37085;SDS011;23001;45.952;12.676;2022-11-12T05:42:09;4.90;;;3.53;;
37085;SDS011;23001;45.952;12.676;2022-11-12T05:44:35;3.58;;;3.28;;
37085;SDS011;23001;45.952;12.676;2022-11-12T05:47:01;5.50;;;3.97;;
37085;SDS011;23001;45.952;12.676;2022-11-12T05:49:27;4.25;;;3.40;;
37085;SDS011;23001;45.952;12.676;2022-11-12T05:51:53;5.38;;;3.17;;
37085;SDS011;23001;45.952;12.676;2022-11-12T05:54:18;4.10;;;3.25;;
37085;SDS011;23001;45.952;12.676;2022-11-12T05:56:44;5.80;;;2.97;;
37085;SDS011;23001;45.952;12.676;2022-11-12T05:59:11;5.28;;;3.70;;
37085;SDS011;23001;45.952;12.676;2022-11-12T06:01:38;3.47;;;3.17;;
37085;SDS011;23001;45.952;12.676;2022-11-12T06:04:11;4.57;;;3.38;;
37085;SDS011;23001;45.952;12.676;2022-11-12T06:06:38;4.55;;;3.28;;
37085;SDS011;23001;45.952;12.676;2022-11-12T06:09:04;4.43;;;2.83;;
37085;SDS011;23001;45.952;12.676;2022-11-12T06:11:31;4.82;;;3.15;;
37085;SDS011;23001;45.952;12.676;2022-11-12T06:13:57;6.85;;;3.72;;
37085;SDS011;23001;45.952;12.676;2022-11-12T06:16:23;7.38;;;3.67;;
37085;SDS011;23001;45.952;12.676;2022-11-12T06:18:49;5.57;;;3.50;;
37085;SDS011;23001;45.952;12.676;2022-11-12T06:21:15;6.55;;;3.60;;
37085;SDS011;23001;45.952;12.676;2022-11-12T06:23:43;3.50;;;3.20;;
37085;SDS011;23001;45.952;12.676;2022-11-12T06:26:30;10.13;;;3.42;;
37085;SDS011;23001;45.952;12.676;2022-11-12T06:28:56;4.65;;;4.13;;
37085;SDS011;23001;45.952;12.676;2022-11-12T06:31:22;17.75;;;10.98;;
37085;SDS011;23001;45.952;12.676;2022-11-12T06:33:48;20.88;;;13.23;;
37085;SDS011;23001;45.952;12.676;2022-11-12T06:36:14;17.05;;;10.10;;
37085;SDS011;23001;45.952;12.676;2022-11-12T06:38:42;16.15;;;9.57;;
37085;SDS011;23001;45.952;12.676;2022-11-12T06:41:09;6.57;;;5.85;;
37085;SDS011;23001;45.952;12.676;2022-11-12T06:43:36;7.15;;;6.40;;
37085;SDS011;23001;45.952;12.676;2022-11-12T06:46:03;12.00;;;7.70;;
37085;SDS011;23001;45.952;12.676;2022-11-12T06:48:32;11.32;;;6.68;;
37085;SDS011;23001;45.952;12.676;2022-11-12T06:51:07;7.18;;;5.13;;
37085;SDS011;23001;45.952;12.676;2022-11-12T06:53:52;6.57;;;5.05;;
37085;SDS011;23001;45.952;12.676;2022-11-12T06:56:19;8.60;;;6.35;;
37085;SDS011;23001;45.952;12.676;2022-11-12T06:58:45;10.15;;;6.40;;
37085;SDS011;23001;45.952;12.676;2022-11-12T07:01:12;8.05;;;5.50;;
37085;SDS011;23001;45.952;12.676;2022-11-12T07:03:40;5.38;;;4.65;;
37085;SDS011;23001;45.952;12.676;2022-11-12T07:06:14;7.43;;;4.78;;
37085;SDS011;23001;45.952;12.676;2022-11-12T07:08:43;7.00;;;4.53;;
37085;SDS011;23001;45.952;12.676;2022-11-12T07:14:00;5.05;;;4.38;;
37085;SDS011;23001;45.952;12.676;2022-11-12T07:16:25;10.00;;;5.70;;
37085;SDS011;23001;45.952;12.676;2022-11-12T07:18:51;9.93;;;6.15;;
37085;SDS011;23001;45.952;12.676;2022-11-12T07:21:20;6.80;;;6.10;;
37085;SDS011;23001;45.952;12.676;2022-11-12T07:23:46;8.23;;;6.40;;
37085;SDS011;23001;45.952;12.676;2022-11-12T07:26:19;7.38;;;5.93;;
37085;SDS011;23001;45.952;12.676;2022-11-12T07:28:47;9.75;;;6.10;;
37085;SDS011;23001;45.952;12.676;2022-11-12T07:31:14;10.48;;;6.38;;
37085;SDS011;23001;45.952;12.676;2022-11-12T07:33:42;10.05;;;5.55;;
37085;SDS011;23001;45.952;12.676;2022-11-12T07:36:12;12.30;;;5.80;;
37085;SDS011;23001;45.952;12.676;2022-11-12T07:38:42;5.85;;;5.25;;
37085;SDS011;23001;45.952;12.676;2022-11-12T07:41:10;7.82;;;5.80;;
37085;SDS011;23001;45.952;12.676;2022-11-12T07:43:41;9.15;;;6.32;;
37085;SDS011;23001;45.952;12.676;2022-11-12T07:46:41;8.88;;;6.28;;
37085;SDS011;23001;45.952;12.676;2022-11-12T07:48:59;9.55;;;6.82;;
37085;SDS011;23001;45.952;12.676;2022-11-12T07:51:26;6.57;;;5.97;;
37085;SDS011;23001;45.952;12.676;2022-11-12T07:53:54;6.88;;;5.53;;
37085;SDS011;23001;45.952;12.676;2022-11-12T07:56:22;10.73;;;8.25;;
37085;SDS011;23001;45.952;12.676;2022-11-12T07:58:49;9.65;;;8.60;;
37085;SDS011;23001;45.952;12.676;2022-11-12T08:03:56;13.18;;;9.98;;
37085;SDS011;23001;45.952;12.676;2022-11-12T08:06:22;11.77;;;9.52;;
37085;SDS011;23001;45.952;12.676;2022-11-12T08:08:52;12.77;;;8.43;;
37085;SDS011;23001;45.952;12.676;2022-11-12T08:11:18;10.98;;;7.47;;
37085;SDS011;23001;45.952;12.676;2022-11-12T08:13:44;7.47;;;6.32;;
37085;SDS011;23001;45.952;12.676;2022-11-12T08:16:10;7.72;;;6.00;;
37085;SDS011;23001;45.952;12.676;2022-11-12T08:18:36;9.48;;;6.47;;
37085;SDS011;23001;45.952;12.676;2022-11-12T08:21:03;6.22;;;5.55;;
37085;SDS011;23001;45.952;12.676;2022-11-12T08:23:30;6.68;;;5.97;;
37085;SDS011;23001;45.952;12.676;2022-11-12T08:25:57;6.80;;;6.10;;
37085;SDS011;23001;45.952;12.676;2022-11-12T08:28:27;6.00;;;5.15;;
37085;SDS011;23001;45.952;12.676;2022-11-12T08:30:53;7.03;;;5.00;;
37085;SDS011;23001;45.952;12.676;2022-11-12T08:33:20;6.55;;;5.20;;
37085;SDS011;23001;45.952;12.676;2022-11-12T08:35:46;6.18;;;5.57;;
37085;SDS011;23001;45.952;12.676;2022-11-12T08:38:12;7.88;;;6.63;;
37085;SDS011;23001;45.952;12.676;2022-11-12T08:40:38;11.85;;;7.55;;
37085;SDS011;23001;45.952;12.676;2022-11-12T08:43:05;8.23;;;6.90;;
37085;SDS011;23001;45.952;12.676;2022-11-12T08:45:33;8.52;;;7.25;;
37085;SDS011;23001;45.952;12.676;2022-11-12T08:48:01;7.05;;;6.45;;
37085;SDS011;23001;45.952;12.676;2022-11-12T08:50:28;9.63;;;7.50;;
37085;SDS011;23001;45.952;12.676;2022-11-12T08:53:01;8.40;;;7.13;;
37085;SDS011;23001;45.952;12.676;2022-11-12T08:55:29;7.63;;;6.93;;
37085;SDS011;23001;45.952;12.676;2022-11-12T08:57:59;8.23;;;7.25;;
37085;SDS011;23001;45.952;12.676;2022-11-12T09:00:28;8.43;;;6.82;;
37085;SDS011;23001;45.952;12.676;2022-11-12T09:03:03;8.00;;;7.20;;
37085;SDS011;23001;45.952;12.676;2022-11-12T09:05:30;8.55;;;7.38;;
37085;SDS011;23001;45.952;12.676;2022-11-12T09:08:06;8.00;;;7.20;;
37085;SDS011;23001;45.952;12.676;2022-11-12T09:10:35;8.75;;;7.85;;
37085;SDS011;23001;45.952;12.676;2022-11-12T09:13:01;14.38;;;8.90;;
37085;SDS011;23001;45.952;12.676;2022-11-12T09:15:28;12.50;;;8.75;;
37085;SDS011;23001;45.952;12.676;2022-11-12T09:18:01;12.40;;;8.93;;
37085;SDS011;23001;45.952;12.676;2022-11-12T09:20:29;10.02;;;8.93;;
37085;SDS011;23001;45.952;12.676;2022-11-12T09:23:03;9.32;;;8.40;;
37085;SDS011;23001;45.952;12.676;2022-11-12T09:25:31;11.95;;;9.35;;
37085;SDS011;23001;45.952;12.676;2022-11-12T09:28:02;10.60;;;8.95;;
37085;SDS011;23001;45.952;12.676;2022-11-12T09:30:37;9.82;;;8.85;;
37085;SDS011;23001;45.952;12.676;2022-11-12T09:33:07;10.00;;;9.00;;
37085;SDS011;23001;45.952;12.676;2022-11-12T09:35:35;11.20;;;9.27;;
37085;SDS011;23001;45.952;12.676;2022-11-12T09:38:01;10.13;;;9.07;;
37085;SDS011;23001;45.952;12.676;2022-11-12T09:40:34;11.77;;;9.27;;
37085;SDS011;23001;45.952;12.676;2022-11-12T09:43:30;11.48;;;8.98;;
37085;SDS011;23001;45.952;12.676;2022-11-12T09:49:14;14.23;;;12.18;;
37085;SDS011;23001;45.952;12.676;2022-11-12T09:51:48;17.27;;;14.80;;
37085;SDS011;23001;45.952;12.676;2022-11-12T09:56:49;12.25;;;10.88;;
37085;SDS011;23001;45.952;12.676;2022-11-12T09:59:16;12.00;;;10.80;;
37085;SDS011;23001;45.952;12.676;2022-11-12T10:07:05;14.48;;;12.25;;
37085;SDS011;23001;45.952;12.676;2022-11-12T10:12:53;14.50;;;12.40;;
37085;SDS011;23001;45.952;12.676;2022-11-12T10:15:36;14.68;;;12.52;;
37085;SDS011;23001;45.952;12.676;2022-11-12T10:21:29;12.68;;;10.35;;
37085;SDS011;23001;45.952;12.676;2022-11-12T10:24:06;13.20;;;11.30;;
37085;SDS011;23001;45.952;12.676;2022-11-12T10:26:33;32.80;;;29.13;;
37085;SDS011;23001;45.952;12.676;2022-11-12T10:31:36;11.80;;;10.68;;
37085;SDS011;23001;45.952;12.676;2022-11-12T10:36:43;70.30;;;54.78;;
37085;SDS011;23001;45.952;12.676;2022-11-12T10:39:32;20.63;;;17.60;;
37085;SDS011;23001;45.952;12.676;2022-11-12T10:42:07;18.92;;;13.13;;
37085;SDS011;23001;45.952;12.676;2022-11-12T10:44:35;15.18;;;13.68;;
37085;SDS011;23001;45.952;12.676;2022-11-12T10:47:16;12.43;;;11.15;;
37085;SDS011;23001;45.952;12.676;2022-11-12T10:50:05;11.48;;;9.57;;
37085;SDS011;23001;45.952;12.676;2022-11-12T10:52:58;10.00;;;8.85;;
37085;SDS011;23001;45.952;12.676;2022-11-12T10:55:36;10.68;;;8.45;;
37085;SDS011;23001;45.952;12.676;2022-11-12T10:58:25;12.05;;;7.55;;
37085;SDS011;23001;45.952;12.676;2022-11-12T11:08:30;13.13;;;9.27;;
37085;SDS011;23001;45.952;12.676;2022-11-12T11:13:45;9.80;;;8.13;;
37085;SDS011;23001;45.952;12.676;2022-11-12T11:16:13;13.02;;;8.43;;
37085;SDS011;23001;45.952;12.676;2022-11-12T11:18:48;9.93;;;7.53;;
37085;SDS011;23001;45.952;12.676;2022-11-12T11:29:42;10.52;;;8.75;;
37085;SDS011;23001;45.952;12.676;2022-11-12T11:45:22;7.35;;;6.55;;
37085;SDS011;23001;45.952;12.676;2022-11-12T11:54:33;6.47;;;5.80;;
37085;SDS011;23001;45.952;12.676;2022-11-12T11:57:09;7.17;;;5.97;;
37085;SDS011;23001;45.952;12.676;2022-11-12T12:00:10;7.90;;;5.53;;
37085;SDS011;23001;45.952;12.676;2022-11-12T12:05:42;6.93;;;6.22;;
37085;SDS011;23001;45.952;12.676;2022-11-12T12:08:23;6.75;;;5.57;;
37085;SDS011;23001;45.952;12.676;2022-11-12T12:10:59;8.85;;;5.95;;
37085;SDS011;23001;45.952;12.676;2022-11-12T12:21:55;6.35;;;5.28;;
37085;SDS011;23001;45.952;12.676;2022-11-12T12:24:28;6.90;;;5.47;;
37085;SDS011;23001;45.952;12.676;2022-11-12T12:27:01;6.53;;;5.22;;
37085;SDS011;23001;45.952;12.676;2022-11-12T12:29:39;8.38;;;5.32;;
37085;SDS011;23001;45.952;12.676;2022-11-12T12:32:22;5.45;;;4.95;;
37085;SDS011;23001;45.952;12.676;2022-11-12T12:34:51;5.72;;;5.05;;
37085;SDS011;23001;45.952;12.676;2022-11-12T12:37:34;6.68;;;4.50;;
37085;SDS011;23001;45.952;12.676;2022-11-12T12:40:13;10.05;;;5.55;;
37085;SDS011;23001;45.952;12.676;2022-11-12T12:42:53;6.00;;;5.30;;
37085;SDS011;23001;45.952;12.676;2022-11-12T12:45:29;6.63;;;5.05;;
37085;SDS011;23001;45.952;12.676;2022-11-12T12:48:06;6.63;;;5.80;;
37085;SDS011;23001;45.952;12.676;2022-11-12T12:50:46;9.77;;;6.47;;
37085;SDS011;23001;45.952;12.676;2022-11-12T12:58:46;9.63;;;6.13;;
37085;SDS011;23001;45.952;12.676;2022-11-12T13:08:50;10.45;;;8.45;;
37085;SDS011;23001;45.952;12.676;2022-11-12T13:12:08;8.55;;;7.43;;
37085;SDS011;23001;45.952;12.676;2022-11-12T13:19:34;30.50;;;24.05;;
37085;SDS011;23001;45.952;12.676;2022-11-12T13:37:56;6.43;;;4.30;;
37085;SDS011;23001;45.952;12.676;2022-11-12T13:48:20;5.75;;;4.60;;
37085;SDS011;23001;45.952;12.676;2022-11-12T13:51:05;5.88;;;4.32;;
37085;SDS011;23001;45.952;12.676;2022-11-12T13:53:38;7.30;;;6.60;;
37085;SDS011;23001;45.952;12.676;2022-11-12T13:56:04;6.82;;;6.22;;
37085;SDS011;23001;45.952;12.676;2022-11-12T13:58:31;8.02;;;6.93;;
37085;SDS011;23001;45.952;12.676;2022-11-12T14:00:59;15.98;;;12.30;;
37085;SDS011;23001;45.952;12.676;2022-11-12T14:03:42;15.70;;;11.55;;
37085;SDS011;23001;45.952;12.676;2022-11-12T14:06:17;13.32;;;8.70;;
37085;SDS011;23001;45.952;12.676;2022-11-12T14:08:54;8.75;;;7.50;;
37085;SDS011;23001;45.952;12.676;2022-11-12T14:17:17;6.75;;;5.13;;
37085;SDS011;23001;45.952;12.676;2022-11-12T14:22:34;7.18;;;5.57;;
37085;SDS011;23001;45.952;12.676;2022-11-12T14:27:43;10.40;;;7.63;;
37085;SDS011;23001;45.952;12.676;2022-11-12T14:32:37;8.73;;;6.90;;
37085;SDS011;23001;45.952;12.676;2022-11-12T14:37:51;13.65;;;9.98;;
37085;SDS011;23001;45.952;12.676;2022-11-12T14:40:20;11.77;;;10.18;;
37085;SDS011;23001;45.952;12.676;2022-11-12T14:42:51;13.10;;;9.90;;
37085;SDS011;23001;45.952;12.676;2022-11-12T14:45:18;10.98;;;9.80;;
37085;SDS011;23001;45.952;12.676;2022-11-12T14:47:46;13.95;;;10.40;;
37085;SDS011;23001;45.952;12.676;2022-11-12T14:55:21;19.10;;;15.40;;
37085;SDS011;23001;45.952;12.676;2022-11-12T14:57:50;17.90;;;14.43;;
37085;SDS011;23001;45.952;12.676;2022-11-12T15:03:22;14.50;;;11.98;;
37085;SDS011;23001;45.952;12.676;2022-11-12T15:05:54;16.15;;;12.20;;
37085;SDS011;23001;45.952;12.676;2022-11-12T15:08:35;15.60;;;11.98;;
37085;SDS011;23001;45.952;12.676;2022-11-12T15:11:22;14.52;;;11.57;;
37085;SDS011;23001;45.952;12.676;2022-11-12T15:14:08;16.17;;;12.40;;
37085;SDS011;23001;45.952;12.676;2022-11-12T15:17:27;15.90;;;12.70;;
37085;SDS011;23001;45.952;12.676;2022-11-12T15:20:04;15.57;;;13.43;;
37085;SDS011;23001;45.952;12.676;2022-11-12T15:22:36;15.55;;;12.73;;
37085;SDS011;23001;45.952;12.676;2022-11-12T15:25:21;16.10;;;13.45;;
37085;SDS011;23001;45.952;12.676;2022-11-12T15:27:53;17.25;;;12.65;;
37085;SDS011;23001;45.952;12.676;2022-11-12T15:30:23;16.67;;;13.35;;
37085;SDS011;23001;45.952;12.676;2022-11-12T15:33:07;21.48;;;13.55;;
37085;SDS011;23001;45.952;12.676;2022-11-12T15:35:37;17.75;;;15.93;;
37085;SDS011;23001;45.952;12.676;2022-11-12T15:38:17;18.85;;;15.80;;
37085;SDS011;23001;45.952;12.676;2022-11-12T15:40:51;19.10;;;15.27;;
37085;SDS011;23001;45.952;12.676;2022-11-12T15:43:20;22.10;;;17.15;;
37085;SDS011;23001;45.952;12.676;2022-11-12T15:45:57;18.40;;;16.17;;
37085;SDS011;23001;45.952;12.676;2022-11-12T15:48:22;24.25;;;19.92;;
37085;SDS011;23001;45.952;12.676;2022-11-12T15:50:48;22.25;;;18.50;;
37085;SDS011;23001;45.952;12.676;2022-11-12T15:53:14;24.83;;;19.48;;
37085;SDS011;23001;45.952;12.676;2022-11-12T15:55:40;24.08;;;20.20;;
37085;SDS011;23001;45.952;12.676;2022-11-12T15:58:16;26.40;;;23.30;;
37085;SDS011;23001;45.952;12.676;2022-11-12T16:01:10;25.20;;;22.50;;
37085;SDS011;23001;45.952;12.676;2022-11-12T16:03:36;27.00;;;23.33;;
37085;SDS011;23001;45.952;12.676;2022-11-12T16:06:02;30.95;;;23.58;;
37085;SDS011;23001;45.952;12.676;2022-11-12T16:08:28;26.90;;;21.90;;
37085;SDS011;23001;45.952;12.676;2022-11-12T16:10:54;26.48;;;22.98;;
37085;SDS011;23001;45.952;12.676;2022-11-12T16:15:59;31.60;;;28.30;;
37085;SDS011;23001;45.952;12.676;2022-11-12T16:18:27;31.80;;;27.75;;
37085;SDS011;23001;45.952;12.676;2022-11-12T16:20:53;32.70;;;26.42;;
37085;SDS011;23001;45.952;12.676;2022-11-12T16:23:19;31.08;;;26.58;;
37085;SDS011;23001;45.952;12.676;2022-11-12T16:25:44;31.42;;;26.95;;
37085;SDS011;23001;45.952;12.676;2022-11-12T16:28:12;32.08;;;26.27;;
37085;SDS011;23001;45.952;12.676;2022-11-12T16:30:42;29.23;;;26.08;;
37085;SDS011;23001;45.952;12.676;2022-11-12T16:33:10;31.50;;;26.73;;
37085;SDS011;23001;45.952;12.676;2022-11-12T16:35:36;27.73;;;24.75;;
37085;SDS011;23001;45.952;12.676;2022-11-12T16:38:02;30.65;;;23.77;;
37085;SDS011;23001;45.952;12.676;2022-11-12T16:40:29;24.95;;;21.30;;
37085;SDS011;23001;45.952;12.676;2022-11-12T16:42:55;23.40;;;20.90;;
37085;SDS011;23001;45.952;12.676;2022-11-12T16:45:21;22.42;;;19.98;;
37085;SDS011;23001;45.952;12.676;2022-11-12T16:47:53;25.65;;;21.58;;
37085;SDS011;23001;45.952;12.676;2022-11-12T16:50:23;22.55;;;20.15;;
37085;SDS011;23001;45.952;12.676;2022-11-12T16:52:50;24.27;;;21.42;;
37085;SDS011;23001;45.952;12.676;2022-11-12T16:55:16;24.48;;;20.83;;
37085;SDS011;23001;45.952;12.676;2022-11-12T16:57:42;20.27;;;18.10;;
37085;SDS011;23001;45.952;12.676;2022-11-12T17:00:09;19.52;;;17.50;;
37085;SDS011;23001;45.952;12.676;2022-11-12T17:02:39;22.23;;;19.17;;
37085;SDS011;23001;45.952;12.676;2022-11-12T17:05:06;21.77;;;18.52;;
37085;SDS011;23001;45.952;12.676;2022-11-12T17:07:36;23.10;;;19.02;;
37085;SDS011;23001;45.952;12.676;2022-11-12T17:10:02;26.70;;;20.38;;
37085;SDS011;23001;45.952;12.676;2022-11-12T17:12:28;22.73;;;19.60;;
37085;SDS011;23001;45.952;12.676;2022-11-12T17:14:54;24.02;;;19.95;;